sensor_id;sensor_type;location;lat;lon;timestamp;P1;durP1;ratioP1;P2;durP2;ratioP2
64252;SDS011;50592;52.958;-7.470;2023-08-08T00:01:21;2.65;;;1.48;;
64252;SDS011;50592;52.958;-7.470;2023-08-08T00:03:46;1.95;;;1.60;;
64252;SDS011;50592;52.958;-7.470;2023-08-08T00:06:12;4.63;;;1.50;;
64252;SDS011;50592;52.958;-7.470;2023-08-08T00:08:38;4.88;;;1.67;;
64252;SDS011;50592;52.958;-7.470;2023-08-08T00:11:04;3.00;;;1.40;;
64252;SDS011;50592;52.958;-7.470;2023-08-08T00:13:30;5.20;;;2.05;;
64252;SDS011;50592;52.958;-7.470;2023-08-08T00:15:56;2.53;;;1.83;;
64252;SDS011;50592;52.958;-7.470;2023-08-08T00:18:21;4.45;;;1.95;;
64252;SDS011;50592;52.958;-7.470;2023-08-08T00:20:47;2.28;;;1.88;;
64252;SDS011;50592;52.958;-7.470;2023-08-08T00:23:13;3.10;;;1.83;;
64252;SDS011;50592;52.958;-7.470;2023-08-08T00:25:39;4.45;;;1.55;;
64252;SDS011;50592;52.958;-7.470;2023-08-08T00:28:05;7.03;;;1.20;;
64252;SDS011;50592;52.958;-7.470;2023-08-08T00:30:31;6.97;;;1.65;;
64252;SDS011;50592;52.958;-7.470;2023-08-08T00:32:56;6.03;;;1.98;;
64252;SDS011;50592;52.958;-7.470;2023-08-08T00:35:22;6.68;;;2.20;;
64252;SDS011;50592;52.958;-7.470;2023-08-08T00:37:48;2.88;;;1.45;;
64252;SDS011;50592;52.958;-7.470;2023-08-08T00:40:14;6.35;;;1.98;;
64252;SDS011;50592;52.958;-7.470;2023-08-08T00:42:40;3.25;;;1.63;;
64252;SDS011;50592;52.958;-7.470;2023-08-08T00:45:06;4.78;;;1.63;;
64252;SDS011;50592;52.958;-7.470;2023-08-08T00:47:33;5.07;;;1.83;;
64252;SDS011;50592;52.958;-7.470;2023-08-08T00:50:01;3.47;;;1.80;;
64252;SDS011;50592;52.958;-7.470;2023-08-08T00:52:29;5.35;;;1.70;;
64252;SDS011;50592;52.958;-7.470;2023-08-08T00:54:55;5.85;;;1.55;;
64252;SDS011;50592;52.958;-7.470;2023-08-08T00:57:21;4.15;;;1.58;;
64252;SDS011;50592;52.958;-7.470;2023-08-08T00:59:47;4.80;;;1.60;;
64252;SDS011;50592;52.958;-7.470;2023-08-08T01:02:14;5.95;;;1.77;;
64252;SDS011;50592;52.958;-7.470;2023-08-08T01:04:40;2.25;;;1.50;;
64252;SDS011;50592;52.958;-7.470;2023-08-08T01:07:12;5.57;;;1.65;;
64252;SDS011;50592;52.958;-7.470;2023-08-08T01:09:48;3.92;;;1.80;;
64252;SDS011;50592;52.958;-7.470;2023-08-08T01:12:20;3.95;;;1.40;;
64252;SDS011;50592;52.958;-7.470;2023-08-08T01:14:46;4.05;;;1.45;;
64252;SDS011;50592;52.958;-7.470;2023-08-08T01:17:12;10.15;;;1.40;;
64252;SDS011;50592;52.958;-7.470;2023-08-08T01:19:39;5.38;;;1.20;;
64252;SDS011;50592;52.958;-7.470;2023-08-08T01:22:06;8.20;;;1.75;;
64252;SDS011;50592;52.958;-7.470;2023-08-08T01:24:40;6.30;;;1.52;;
64252;SDS011;50592;52.958;-7.470;2023-08-08T01:27:06;3.20;;;1.30;;
64252;SDS011;50592;52.958;-7.470;2023-08-08T01:29:32;5.88;;;1.50;;
64252;SDS011;50592;52.958;-7.470;2023-08-08T01:31:58;4.20;;;1.50;;
64252;SDS011;50592;52.958;-7.470;2023-08-08T01:34:25;7.70;;;1.60;;
64252;SDS011;50592;52.958;-7.470;2023-08-08T01:36:57;4.95;;;1.58;;
64252;SDS011;50592;52.958;-7.470;2023-08-08T01:39:30;5.28;;;1.80;;
64252;SDS011;50592;52.958;-7.470;2023-08-08T01:41:58;4.78;;;1.77;;
64252;SDS011;50592;52.958;-7.470;2023-08-08T01:44:26;3.30;;;1.75;;
64252;SDS011;50592;52.958;-7.470;2023-08-08T01:46:53;3.45;;;1.88;;
64252;SDS011;50592;52.958;-7.470;2023-08-08T01:49:20;3.45;;;1.90;;
64252;SDS011;50592;52.958;-7.470;2023-08-08T01:51:46;4.50;;;2.05;;
64252;SDS011;50592;52.958;-7.470;2023-08-08T01:54:13;7.28;;;1.70;;
64252;SDS011;50592;52.958;-7.470;2023-08-08T01:56:39;7.20;;;1.85;;
64252;SDS011;50592;52.958;-7.470;2023-08-08T01:59:05;4.70;;;1.73;;
64252;SDS011;50592;52.958;-7.470;2023-08-08T02:01:31;3.88;;;1.67;;
64252;SDS011;50592;52.958;-7.470;2023-08-08T02:03:56;4.20;;;1.40;;
64252;SDS011;50592;52.958;-7.470;2023-08-08T02:06:22;3.67;;;1.38;;
64252;SDS011;50592;52.958;-7.470;2023-08-08T02:08:48;6.07;;;1.52;;
64252;SDS011;50592;52.958;-7.470;2023-08-08T02:11:14;3.15;;;1.38;;
64252;SDS011;50592;52.958;-7.470;2023-08-08T02:13:41;4.32;;;1.40;;
64252;SDS011;50592;52.958;-7.470;2023-08-08T02:16:07;3.28;;;1.50;;
64252;SDS011;50592;52.958;-7.470;2023-08-08T02:18:32;2.65;;;1.27;;
64252;SDS011;50592;52.958;-7.470;2023-08-08T02:20:58;3.03;;;1.08;;
64252;SDS011;50592;52.958;-7.470;2023-08-08T02:23:25;5.47;;;1.35;;
64252;SDS011;50592;52.958;-7.470;2023-08-08T02:25:51;2.60;;;1.50;;
64252;SDS011;50592;52.958;-7.470;2023-08-08T02:28:17;3.95;;;1.42;;
64252;SDS011;50592;52.958;-7.470;2023-08-08T02:30:43;3.47;;;1.40;;
64252;SDS011;50592;52.958;-7.470;2023-08-08T02:33:09;5.80;;;2.00;;
64252;SDS011;50592;52.958;-7.470;2023-08-08T02:35:36;11.25;;;1.90;;
64252;SDS011;50592;52.958;-7.470;2023-08-08T02:38:03;2.28;;;1.05;;
64252;SDS011;50592;52.958;-7.470;2023-08-08T02:40:29;4.28;;;1.63;;
64252;SDS011;50592;52.958;-7.470;2023-08-08T02:42:55;4.85;;;1.88;;
64252;SDS011;50592;52.958;-7.470;2023-08-08T02:45:21;3.63;;;1.30;;
64252;SDS011;50592;52.958;-7.470;2023-08-08T02:47:47;5.38;;;1.10;;
64252;SDS011;50592;52.958;-7.470;2023-08-08T02:50:12;4.03;;;1.55;;
64252;SDS011;50592;52.958;-7.470;2023-08-08T02:52:38;5.93;;;1.38;;
64252;SDS011;50592;52.958;-7.470;2023-08-08T02:55:04;2.45;;;1.20;;
64252;SDS011;50592;52.958;-7.470;2023-08-08T02:57:30;10.35;;;1.55;;
64252;SDS011;50592;52.958;-7.470;2023-08-08T02:59:56;4.00;;;1.60;;
64252;SDS011;50592;52.958;-7.470;2023-08-08T03:02:22;7.85;;;1.63;;
64252;SDS011;50592;52.958;-7.470;2023-08-08T03:04:50;3.45;;;1.38;;
64252;SDS011;50592;52.958;-7.470;2023-08-08T03:07:16;5.50;;;1.73;;
64252;SDS011;50592;52.958;-7.470;2023-08-08T03:09:42;4.25;;;1.38;;
64252;SDS011;50592;52.958;-7.470;2023-08-08T03:12:09;5.45;;;1.48;;
64252;SDS011;50592;52.958;-7.470;2023-08-08T03:14:36;2.55;;;1.40;;
64252;SDS011;50592;52.958;-7.470;2023-08-08T03:17:03;5.38;;;1.40;;
64252;SDS011;50592;52.958;-7.470;2023-08-08T03:19:30;3.15;;;1.58;;
64252;SDS011;50592;52.958;-7.470;2023-08-08T03:21:57;5.63;;;1.40;;
64252;SDS011;50592;52.958;-7.470;2023-08-08T03:24:24;2.38;;;1.55;;
64252;SDS011;50592;52.958;-7.470;2023-08-08T03:26:49;2.53;;;1.60;;
64252;SDS011;50592;52.958;-7.470;2023-08-08T03:29:16;5.10;;;1.30;;
64252;SDS011;50592;52.958;-7.470;2023-08-08T03:31:46;7.28;;;1.45;;
64252;SDS011;50592;52.958;-7.470;2023-08-08T03:34:12;4.10;;;1.50;;
64252;SDS011;50592;52.958;-7.470;2023-08-08T03:36:38;5.22;;;1.52;;
64252;SDS011;50592;52.958;-7.470;2023-08-08T03:39:04;2.72;;;1.65;;
64252;SDS011;50592;52.958;-7.470;2023-08-08T03:41:33;6.90;;;1.70;;
64252;SDS011;50592;52.958;-7.470;2023-08-08T03:43:59;8.55;;;1.95;;
64252;SDS011;50592;52.958;-7.470;2023-08-08T03:46:25;1.52;;;1.20;;
64252;SDS011;50592;52.958;-7.470;2023-08-08T03:48:51;4.40;;;1.92;;
64252;SDS011;50592;52.958;-7.470;2023-08-08T03:51:18;5.38;;;2.05;;
64252;SDS011;50592;52.958;-7.470;2023-08-08T03:53:43;4.93;;;2.30;;
64252;SDS011;50592;52.958;-7.470;2023-08-08T03:56:09;7.38;;;1.75;;
64252;SDS011;50592;52.958;-7.470;2023-08-08T03:58:35;4.47;;;1.77;;
64252;SDS011;50592;52.958;-7.470;2023-08-08T04:01:02;5.22;;;1.92;;
64252;SDS011;50592;52.958;-7.470;2023-08-08T04:03:28;4.50;;;1.77;;
64252;SDS011;50592;52.958;-7.470;2023-08-08T04:05:55;2.55;;;1.55;;
64252;SDS011;50592;52.958;-7.470;2023-08-08T04:08:21;8.55;;;1.35;;
64252;SDS011;50592;52.958;-7.470;2023-08-08T04:10:46;6.88;;;1.42;;
64252;SDS011;50592;52.958;-7.470;2023-08-08T04:13:12;2.95;;;1.42;;
64252;SDS011;50592;52.958;-7.470;2023-08-08T04:15:38;3.38;;;1.70;;
64252;SDS011;50592;52.958;-7.470;2023-08-08T04:18:05;5.40;;;2.00;;
64252;SDS011;50592;52.958;-7.470;2023-08-08T04:20:34;12.50;;;2.08;;
64252;SDS011;50592;52.958;-7.470;2023-08-08T04:23:00;3.60;;;1.95;;
64252;SDS011;50592;52.958;-7.470;2023-08-08T04:25:26;5.82;;;1.70;;
64252;SDS011;50592;52.958;-7.470;2023-08-08T04:27:52;1.88;;;1.67;;
64252;SDS011;50592;52.958;-7.470;2023-08-08T04:30:19;4.97;;;2.25;;
64252;SDS011;50592;52.958;-7.470;2023-08-08T04:32:44;3.08;;;1.73;;
64252;SDS011;50592;52.958;-7.470;2023-08-08T04:35:11;6.95;;;2.20;;
64252;SDS011;50592;52.958;-7.470;2023-08-08T04:37:36;6.47;;;2.53;;
64252;SDS011;50592;52.958;-7.470;2023-08-08T04:40:02;7.47;;;2.10;;
64252;SDS011;50592;52.958;-7.470;2023-08-08T04:42:29;7.15;;;3.33;;
64252;SDS011;50592;52.958;-7.470;2023-08-08T04:44:55;7.03;;;2.60;;
64252;SDS011;50592;52.958;-7.470;2023-08-08T04:47:21;5.30;;;2.72;;
64252;SDS011;50592;52.958;-7.470;2023-08-08T04:49:47;7.95;;;3.00;;
64252;SDS011;50592;52.958;-7.470;2023-08-08T04:52:12;8.38;;;2.72;;
64252;SDS011;50592;52.958;-7.470;2023-08-08T04:54:38;8.43;;;3.03;;
64252;SDS011;50592;52.958;-7.470;2023-08-08T04:57:04;5.97;;;3.10;;
64252;SDS011;50592;52.958;-7.470;2023-08-08T04:59:30;4.88;;;2.97;;
64252;SDS011;50592;52.958;-7.470;2023-08-08T05:01:56;9.23;;;2.70;;
64252;SDS011;50592;52.958;-7.470;2023-08-08T05:04:21;3.67;;;2.80;;
64252;SDS011;50592;52.958;-7.470;2023-08-08T05:06:47;7.82;;;3.17;;
64252;SDS011;50592;52.958;-7.470;2023-08-08T05:09:13;6.50;;;2.80;;
64252;SDS011;50592;52.958;-7.470;2023-08-08T05:11:39;7.45;;;2.70;;
64252;SDS011;50592;52.958;-7.470;2023-08-08T05:14:05;8.13;;;3.03;;
64252;SDS011;50592;52.958;-7.470;2023-08-08T05:16:31;5.35;;;2.58;;
64252;SDS011;50592;52.958;-7.470;2023-08-08T05:18:56;6.10;;;2.88;;
64252;SDS011;50592;52.958;-7.470;2023-08-08T05:21:22;7.28;;;2.70;;
64252;SDS011;50592;52.958;-7.470;2023-08-08T05:23:48;2.78;;;2.47;;
64252;SDS011;50592;52.958;-7.470;2023-08-08T05:26:14;4.28;;;2.42;;
64252;SDS011;50592;52.958;-7.470;2023-08-08T05:28:41;8.07;;;2.42;;
64252;SDS011;50592;52.958;-7.470;2023-08-08T05:31:06;6.00;;;2.35;;
64252;SDS011;50592;52.958;-7.470;2023-08-08T05:33:32;3.92;;;2.30;;
64252;SDS011;50592;52.958;-7.470;2023-08-08T05:35:58;5.55;;;2.67;;
64252;SDS011;50592;52.958;-7.470;2023-08-08T05:38:24;8.50;;;2.80;;
64252;SDS011;50592;52.958;-7.470;2023-08-08T05:40:50;6.78;;;2.53;;
64252;SDS011;50592;52.958;-7.470;2023-08-08T05:43:16;3.47;;;2.55;;
64252;SDS011;50592;52.958;-7.470;2023-08-08T05:45:44;5.82;;;3.15;;
64252;SDS011;50592;52.958;-7.470;2023-08-08T05:48:10;2.78;;;2.42;;
64252;SDS011;50592;52.958;-7.470;2023-08-08T05:50:40;4.70;;;2.92;;
64252;SDS011;50592;52.958;-7.470;2023-08-08T05:53:06;4.13;;;2.47;;
64252;SDS011;50592;52.958;-7.470;2023-08-08T05:55:32;5.00;;;2.47;;
64252;SDS011;50592;52.958;-7.470;2023-08-08T05:57:58;5.38;;;2.95;;
64252;SDS011;50592;52.958;-7.470;2023-08-08T06:00:24;4.28;;;2.97;;
64252;SDS011;50592;52.958;-7.470;2023-08-08T06:02:50;5.20;;;2.65;;
64252;SDS011;50592;52.958;-7.470;2023-08-08T06:05:16;7.95;;;3.03;;
64252;SDS011;50592;52.958;-7.470;2023-08-08T06:07:43;4.82;;;2.47;;
64252;SDS011;50592;52.958;-7.470;2023-08-08T06:10:09;3.78;;;2.80;;
64252;SDS011;50592;52.958;-7.470;2023-08-08T06:12:35;6.10;;;2.50;;
64252;SDS011;50592;52.958;-7.470;2023-08-08T06:15:01;4.85;;;2.75;;
64252;SDS011;50592;52.958;-7.470;2023-08-08T06:17:30;3.78;;;1.98;;
64252;SDS011;50592;52.958;-7.470;2023-08-08T06:19:56;7.47;;;3.00;;
64252;SDS011;50592;52.958;-7.470;2023-08-08T06:22:22;8.27;;;2.58;;
64252;SDS011;50592;52.958;-7.470;2023-08-08T06:24:48;3.15;;;2.20;;
64252;SDS011;50592;52.958;-7.470;2023-08-08T06:27:14;4.70;;;2.40;;
64252;SDS011;50592;52.958;-7.470;2023-08-08T06:29:40;4.28;;;2.20;;
64252;SDS011;50592;52.958;-7.470;2023-08-08T06:32:07;4.18;;;2.50;;
64252;SDS011;50592;52.958;-7.470;2023-08-08T06:34:33;10.07;;;2.70;;
64252;SDS011;50592;52.958;-7.470;2023-08-08T06:36:58;2.63;;;2.40;;
64252;SDS011;50592;52.958;-7.470;2023-08-08T06:39:24;3.42;;;2.50;;
64252;SDS011;50592;52.958;-7.470;2023-08-08T06:41:50;5.07;;;2.58;;
64252;SDS011;50592;52.958;-7.470;2023-08-08T06:44:31;6.97;;;2.90;;
64252;SDS011;50592;52.958;-7.470;2023-08-08T06:46:57;3.58;;;2.78;;
64252;SDS011;50592;52.958;-7.470;2023-08-08T06:49:23;9.07;;;3.28;;
64252;SDS011;50592;52.958;-7.470;2023-08-08T06:51:49;4.65;;;2.60;;
64252;SDS011;50592;52.958;-7.470;2023-08-08T06:54:15;6.07;;;3.10;;
64252;SDS011;50592;52.958;-7.470;2023-08-08T06:56:40;5.35;;;2.90;;
64252;SDS011;50592;52.958;-7.470;2023-08-08T06:59:06;2.80;;;2.47;;
64252;SDS011;50592;52.958;-7.470;2023-08-08T07:01:32;3.95;;;2.80;;
64252;SDS011;50592;52.958;-7.470;2023-08-08T07:03:59;7.03;;;2.90;;
64252;SDS011;50592;52.958;-7.470;2023-08-08T07:06:25;5.30;;;2.65;;
64252;SDS011;50592;52.958;-7.470;2023-08-08T07:08:51;10.15;;;3.20;;
64252;SDS011;50592;52.958;-7.470;2023-08-08T07:11:17;3.30;;;2.38;;
64252;SDS011;50592;52.958;-7.470;2023-08-08T07:13:43;9.07;;;2.88;;
64252;SDS011;50592;52.958;-7.470;2023-08-08T07:16:08;3.90;;;2.58;;
64252;SDS011;50592;52.958;-7.470;2023-08-08T07:18:34;5.47;;;2.72;;
64252;SDS011;50592;52.958;-7.470;2023-08-08T07:21:00;9.50;;;3.03;;
64252;SDS011;50592;52.958;-7.470;2023-08-08T07:23:26;8.05;;;2.78;;
64252;SDS011;50592;52.958;-7.470;2023-08-08T07:25:51;6.28;;;3.00;;
64252;SDS011;50592;52.958;-7.470;2023-08-08T07:28:17;6.40;;;3.08;;
64252;SDS011;50592;52.958;-7.470;2023-08-08T07:30:43;7.43;;;3.33;;
64252;SDS011;50592;52.958;-7.470;2023-08-08T07:33:09;5.32;;;3.58;;
64252;SDS011;50592;52.958;-7.470;2023-08-08T07:35:35;4.57;;;3.08;;
64252;SDS011;50592;52.958;-7.470;2023-08-08T07:38:00;8.85;;;3.65;;
64252;SDS011;50592;52.958;-7.470;2023-08-08T07:40:26;9.73;;;3.63;;
64252;SDS011;50592;52.958;-7.470;2023-08-08T07:42:52;9.80;;;3.45;;
64252;SDS011;50592;52.958;-7.470;2023-08-08T07:45:18;9.02;;;3.47;;
64252;SDS011;50592;52.958;-7.470;2023-08-08T07:47:44;4.10;;;3.05;;
64252;SDS011;50592;52.958;-7.470;2023-08-08T07:50:11;6.68;;;3.15;;
64252;SDS011;50592;52.958;-7.470;2023-08-08T07:52:37;5.57;;;2.88;;
64252;SDS011;50592;52.958;-7.470;2023-08-08T07:55:04;4.40;;;2.53;;
64252;SDS011;50592;52.958;-7.470;2023-08-08T07:57:31;8.32;;;2.80;;
64252;SDS011;50592;52.958;-7.470;2023-08-08T08:00:00;5.20;;;2.58;;
64252;SDS011;50592;52.958;-7.470;2023-08-08T08:02:38;8.85;;;2.63;;
64252;SDS011;50592;52.958;-7.470;2023-08-08T08:05:05;5.47;;;2.67;;
64252;SDS011;50592;52.958;-7.470;2023-08-08T08:07:33;5.97;;;2.50;;
64252;SDS011;50592;52.958;-7.470;2023-08-08T08:10:00;4.93;;;2.58;;
64252;SDS011;50592;52.958;-7.470;2023-08-08T08:12:29;6.05;;;2.78;;
64252;SDS011;50592;52.958;-7.470;2023-08-08T08:14:55;7.72;;;2.80;;
64252;SDS011;50592;52.958;-7.470;2023-08-08T08:17:21;6.45;;;3.28;;
64252;SDS011;50592;52.958;-7.470;2023-08-08T08:19:46;3.85;;;2.28;;
64252;SDS011;50592;52.958;-7.470;2023-08-08T08:22:12;3.63;;;2.72;;
64252;SDS011;50592;52.958;-7.470;2023-08-08T08:24:38;4.97;;;2.35;;
64252;SDS011;50592;52.958;-7.470;2023-08-08T08:27:04;5.32;;;2.42;;
64252;SDS011;50592;52.958;-7.470;2023-08-08T08:29:30;4.40;;;2.92;;
64252;SDS011;50592;52.958;-7.470;2023-08-08T08:31:57;6.90;;;2.50;;
64252;SDS011;50592;52.958;-7.470;2023-08-08T08:34:23;6.13;;;2.70;;
64252;SDS011;50592;52.958;-7.470;2023-08-08T08:36:49;6.85;;;2.63;;
64252;SDS011;50592;52.958;-7.470;2023-08-08T08:39:14;5.22;;;3.00;;
64252;SDS011;50592;52.958;-7.470;2023-08-08T08:41:41;4.60;;;2.47;;
64252;SDS011;50592;52.958;-7.470;2023-08-08T08:44:08;5.43;;;2.80;;
64252;SDS011;50592;52.958;-7.470;2023-08-08T08:46:34;3.83;;;2.42;;
64252;SDS011;50592;52.958;-7.470;2023-08-08T08:49:02;4.10;;;2.25;;
64252;SDS011;50592;52.958;-7.470;2023-08-08T08:51:31;5.03;;;2.80;;
64252;SDS011;50592;52.958;-7.470;2023-08-08T08:53:58;5.32;;;3.15;;
64252;SDS011;50592;52.958;-7.470;2023-08-08T08:56:23;3.88;;;2.72;;
64252;SDS011;50592;52.958;-7.470;2023-08-08T08:58:50;4.38;;;2.92;;
64252;SDS011;50592;52.958;-7.470;2023-08-08T09:01:16;7.88;;;3.40;;
64252;SDS011;50592;52.958;-7.470;2023-08-08T09:03:44;2.70;;;2.50;;
64252;SDS011;50592;52.958;-7.470;2023-08-08T09:06:11;4.07;;;2.70;;
64252;SDS011;50592;52.958;-7.470;2023-08-08T09:08:37;5.90;;;2.35;;
64252;SDS011;50592;52.958;-7.470;2023-08-08T09:11:03;2.65;;;2.25;;
64252;SDS011;50592;52.958;-7.470;2023-08-08T09:13:38;3.58;;;2.30;;
64252;SDS011;50592;52.958;-7.470;2023-08-08T09:16:08;5.15;;;2.15;;
64252;SDS011;50592;52.958;-7.470;2023-08-08T09:18:35;7.20;;;2.35;;
64252;SDS011;50592;52.958;-7.470;2023-08-08T09:21:06;4.57;;;2.40;;
64252;SDS011;50592;52.958;-7.470;2023-08-08T09:23:32;3.35;;;2.10;;
64252;SDS011;50592;52.958;-7.470;2023-08-08T09:25:58;2.78;;;2.28;;
64252;SDS011;50592;52.958;-7.470;2023-08-08T09:28:24;4.30;;;2.65;;
64252;SDS011;50592;52.958;-7.470;2023-08-08T09:30:50;5.10;;;2.45;;
64252;SDS011;50592;52.958;-7.470;2023-08-08T09:33:17;5.22;;;2.22;;
64252;SDS011;50592;52.958;-7.470;2023-08-08T09:35:43;3.38;;;2.20;;
64252;SDS011;50592;52.958;-7.470;2023-08-08T09:38:09;2.70;;;1.70;;
64252;SDS011;50592;52.958;-7.470;2023-08-08T09:40:35;2.22;;;1.63;;
64252;SDS011;50592;52.958;-7.470;2023-08-08T09:43:01;4.82;;;1.83;;
64252;SDS011;50592;52.958;-7.470;2023-08-08T09:45:35;5.22;;;1.90;;
64252;SDS011;50592;52.958;-7.470;2023-08-08T09:48:02;3.63;;;1.70;;
64252;SDS011;50592;52.958;-7.470;2023-08-08T09:50:29;2.63;;;1.45;;
64252;SDS011;50592;52.958;-7.470;2023-08-08T09:52:58;5.28;;;1.73;;
64252;SDS011;50592;52.958;-7.470;2023-08-08T09:55:24;2.78;;;1.60;;
64252;SDS011;50592;52.958;-7.470;2023-08-08T09:57:50;2.78;;;1.42;;
64252;SDS011;50592;52.958;-7.470;2023-08-08T10:00:17;2.33;;;1.33;;
64252;SDS011;50592;52.958;-7.470;2023-08-08T10:02:46;3.13;;;1.35;;
64252;SDS011;50592;52.958;-7.470;2023-08-08T10:05:13;2.05;;;1.20;;
64252;SDS011;50592;52.958;-7.470;2023-08-08T10:07:40;5.78;;;1.45;;
64252;SDS011;50592;52.958;-7.470;2023-08-08T10:10:07;2.63;;;1.30;;
64252;SDS011;50592;52.958;-7.470;2023-08-08T10:12:38;2.15;;;0.95;;
64252;SDS011;50592;52.958;-7.470;2023-08-08T10:15:08;3.17;;;1.05;;
64252;SDS011;50592;52.958;-7.470;2023-08-08T10:17:38;2.70;;;1.35;;
64252;SDS011;50592;52.958;-7.470;2023-08-08T10:20:05;1.95;;;1.10;;
64252;SDS011;50592;52.958;-7.470;2023-08-08T10:22:38;1.63;;;0.88;;
64252;SDS011;50592;52.958;-7.470;2023-08-08T10:25:08;2.45;;;1.25;;
64252;SDS011;50592;52.958;-7.470;2023-08-08T10:27:34;5.88;;;1.10;;
64252;SDS011;50592;52.958;-7.470;2023-08-08T10:30:08;1.73;;;0.93;;
64252;SDS011;50592;52.958;-7.470;2023-08-08T10:32:39;2.65;;;0.90;;
64252;SDS011;50592;52.958;-7.470;2023-08-08T10:35:07;2.53;;;0.90;;
64252;SDS011;50592;52.958;-7.470;2023-08-08T10:37:34;2.95;;;1.02;;
64252;SDS011;50592;52.958;-7.470;2023-08-08T10:40:01;2.70;;;1.60;;
64252;SDS011;50592;52.958;-7.470;2023-08-08T10:42:32;4.95;;;0.85;;
64252;SDS011;50592;52.958;-7.470;2023-08-08T10:44:59;2.72;;;1.02;;
64252;SDS011;50592;52.958;-7.470;2023-08-08T10:47:35;1.38;;;0.77;;
64252;SDS011;50592;52.958;-7.470;2023-08-08T10:50:15;1.40;;;0.90;;
64252;SDS011;50592;52.958;-7.470;2023-08-08T10:55:22;2.97;;;0.93;;
64252;SDS011;50592;52.958;-7.470;2023-08-08T11:00:33;2.55;;;0.98;;
64252;SDS011;50592;52.958;-7.470;2023-08-08T11:03:01;1.85;;;0.80;;
64252;SDS011;50592;52.958;-7.470;2023-08-08T11:05:31;2.05;;;1.17;;
64252;SDS011;50592;52.958;-7.470;2023-08-08T11:08:02;2.92;;;1.10;;
64252;SDS011;50592;52.958;-7.470;2023-08-08T11:10:29;1.92;;;1.00;;
64252;SDS011;50592;52.958;-7.470;2023-08-08T11:13:03;2.50;;;0.90;;
64252;SDS011;50592;52.958;-7.470;2023-08-08T11:15:35;2.92;;;1.00;;
64252;SDS011;50592;52.958;-7.470;2023-08-08T11:18:02;2.47;;;0.90;;
64252;SDS011;50592;52.958;-7.470;2023-08-08T11:20:33;1.13;;;1.00;;
64252;SDS011;50592;52.958;-7.470;2023-08-08T11:23:00;4.78;;;1.48;;
64252;SDS011;50592;52.958;-7.470;2023-08-08T11:25:27;4.57;;;1.17;;
64252;SDS011;50592;52.958;-7.470;2023-08-08T11:27:55;3.67;;;1.35;;
64252;SDS011;50592;52.958;-7.470;2023-08-08T11:30:22;1.75;;;0.90;;
64252;SDS011;50592;52.958;-7.470;2023-08-08T11:32:49;3.90;;;1.10;;
64252;SDS011;50592;52.958;-7.470;2023-08-08T11:35:21;1.15;;;0.85;;
64252;SDS011;50592;52.958;-7.470;2023-08-08T11:37:48;1.55;;;0.80;;
64252;SDS011;50592;52.958;-7.470;2023-08-08T11:40:17;2.45;;;0.82;;
64252;SDS011;50592;52.958;-7.470;2023-08-08T11:42:43;2.03;;;0.82;;
64252;SDS011;50592;52.958;-7.470;2023-08-08T11:45:15;6.35;;;0.85;;
64252;SDS011;50592;52.958;-7.470;2023-08-08T11:47:41;4.72;;;1.25;;
64252;SDS011;50592;52.958;-7.470;2023-08-08T11:50:08;2.28;;;1.42;;
64252;SDS011;50592;52.958;-7.470;2023-08-08T11:52:36;2.88;;;0.95;;
64252;SDS011;50592;52.958;-7.470;2023-08-08T11:55:06;3.45;;;1.08;;
64252;SDS011;50592;52.958;-7.470;2023-08-08T11:57:36;1.90;;;1.00;;
64252;SDS011;50592;52.958;-7.470;2023-08-08T12:00:04;3.22;;;1.10;;
64252;SDS011;50592;52.958;-7.470;2023-08-08T12:02:39;6.72;;;1.23;;
64252;SDS011;50592;52.958;-7.470;2023-08-08T12:05:06;2.33;;;1.02;;
64252;SDS011;50592;52.958;-7.470;2023-08-08T12:07:35;1.73;;;0.90;;
64252;SDS011;50592;52.958;-7.470;2023-08-08T12:10:03;2.47;;;1.10;;
64252;SDS011;50592;52.958;-7.470;2023-08-08T12:12:31;1.58;;;1.08;;
64252;SDS011;50592;52.958;-7.470;2023-08-08T12:15:03;3.30;;;1.23;;
64252;SDS011;50592;52.958;-7.470;2023-08-08T12:17:32;1.60;;;0.80;;
64252;SDS011;50592;52.958;-7.470;2023-08-08T12:20:02;3.53;;;0.93;;
64252;SDS011;50592;52.958;-7.470;2023-08-08T12:22:30;1.48;;;0.90;;
64252;SDS011;50592;52.958;-7.470;2023-08-08T12:24:57;6.38;;;2.20;;
64252;SDS011;50592;52.958;-7.470;2023-08-08T12:27:22;3.05;;;1.48;;
64252;SDS011;50592;52.958;-7.470;2023-08-08T12:29:48;2.20;;;1.10;;
64252;SDS011;50592;52.958;-7.470;2023-08-08T12:32:14;2.47;;;1.27;;
64252;SDS011;50592;52.958;-7.470;2023-08-08T12:34:40;2.88;;;1.27;;
64252;SDS011;50592;52.958;-7.470;2023-08-08T12:37:06;1.67;;;1.23;;
64252;SDS011;50592;52.958;-7.470;2023-08-08T12:39:31;1.77;;;1.20;;
64252;SDS011;50592;52.958;-7.470;2023-08-08T12:41:57;2.80;;;0.90;;
64252;SDS011;50592;52.958;-7.470;2023-08-08T12:44:23;5.85;;;1.10;;
64252;SDS011;50592;52.958;-7.470;2023-08-08T12:46:49;3.00;;;0.98;;
64252;SDS011;50592;52.958;-7.470;2023-08-08T12:49:15;3.97;;;2.28;;
64252;SDS011;50592;52.958;-7.470;2023-08-08T12:51:41;3.45;;;1.50;;
64252;SDS011;50592;52.958;-7.470;2023-08-08T12:54:07;2.00;;;0.63;;
64252;SDS011;50592;52.958;-7.470;2023-08-08T12:56:32;2.70;;;1.10;;
64252;SDS011;50592;52.958;-7.470;2023-08-08T12:58:58;0.80;;;0.80;;
64252;SDS011;50592;52.958;-7.470;2023-08-08T13:01:24;2.13;;;1.05;;
64252;SDS011;50592;52.958;-7.470;2023-08-08T13:03:50;2.83;;;0.98;;
64252;SDS011;50592;52.958;-7.470;2023-08-08T13:06:16;1.98;;;0.80;;
64252;SDS011;50592;52.958;-7.470;2023-08-08T13:08:42;2.95;;;0.95;;
64252;SDS011;50592;52.958;-7.470;2023-08-08T13:11:08;2.08;;;0.80;;
64252;SDS011;50592;52.958;-7.470;2023-08-08T13:13:34;1.80;;;0.85;;
64252;SDS011;50592;52.958;-7.470;2023-08-08T13:15:59;1.65;;;1.15;;
64252;SDS011;50592;52.958;-7.470;2023-08-08T13:18:25;1.75;;;0.60;;
64252;SDS011;50592;52.958;-7.470;2023-08-08T13:20:51;1.33;;;0.68;;
64252;SDS011;50592;52.958;-7.470;2023-08-08T13:23:17;1.85;;;0.85;;
64252;SDS011;50592;52.958;-7.470;2023-08-08T13:25:43;3.60;;;0.80;;
64252;SDS011;50592;52.958;-7.470;2023-08-08T13:28:09;3.00;;;0.93;;
64252;SDS011;50592;52.958;-7.470;2023-08-08T13:30:35;1.15;;;0.73;;
64252;SDS011;50592;52.958;-7.470;2023-08-08T13:33:01;3.55;;;1.05;;
64252;SDS011;50592;52.958;-7.470;2023-08-08T13:35:27;2.97;;;1.00;;
64252;SDS011;50592;52.958;-7.470;2023-08-08T13:37:52;5.10;;;1.40;;
64252;SDS011;50592;52.958;-7.470;2023-08-08T13:40:20;3.70;;;1.20;;
64252;SDS011;50592;52.958;-7.470;2023-08-08T13:42:45;1.65;;;0.80;;
64252;SDS011;50592;52.958;-7.470;2023-08-08T13:45:13;2.03;;;0.90;;
64252;SDS011;50592;52.958;-7.470;2023-08-08T13:47:40;2.60;;;1.25;;
64252;SDS011;50592;52.958;-7.470;2023-08-08T13:50:06;2.30;;;0.88;;
64252;SDS011;50592;52.958;-7.470;2023-08-08T13:52:33;0.98;;;0.77;;
64252;SDS011;50592;52.958;-7.470;2023-08-08T13:54:59;2.65;;;0.70;;
64252;SDS011;50592;52.958;-7.470;2023-08-08T13:57:25;1.85;;;0.80;;
64252;SDS011;50592;52.958;-7.470;2023-08-08T13:59:51;2.13;;;0.70;;
64252;SDS011;50592;52.958;-7.470;2023-08-08T14:02:16;1.48;;;0.75;;
64252;SDS011;50592;52.958;-7.470;2023-08-08T14:04:44;1.80;;;0.75;;
64252;SDS011;50592;52.958;-7.470;2023-08-08T14:07:10;2.60;;;0.70;;
64252;SDS011;50592;52.958;-7.470;2023-08-08T14:09:36;3.10;;;1.15;;
64252;SDS011;50592;52.958;-7.470;2023-08-08T14:12:02;1.67;;;0.70;;
64252;SDS011;50592;52.958;-7.470;2023-08-08T14:14:29;1.95;;;0.65;;
64252;SDS011;50592;52.958;-7.470;2023-08-08T14:16:54;1.48;;;1.00;;
64252;SDS011;50592;52.958;-7.470;2023-08-08T14:19:20;0.68;;;0.47;;
64252;SDS011;50592;52.958;-7.470;2023-08-08T14:21:46;1.40;;;0.80;;
64252;SDS011;50592;52.958;-7.470;2023-08-08T14:24:12;1.70;;;0.55;;
64252;SDS011;50592;52.958;-7.470;2023-08-08T14:26:37;2.75;;;0.95;;
64252;SDS011;50592;52.958;-7.470;2023-08-08T14:29:03;1.73;;;0.50;;
64252;SDS011;50592;52.958;-7.470;2023-08-08T14:31:30;0.82;;;0.57;;
64252;SDS011;50592;52.958;-7.470;2023-08-08T14:33:56;3.63;;;0.98;;
64252;SDS011;50592;52.958;-7.470;2023-08-08T14:36:21;1.23;;;0.70;;